sensor_id;sensor_type;location;lat;lon;timestamp;pressure;altitude;pressure_sealevel;temperature;humidity
36828;BME280;22766;48.042;11.192;2024-03-08T00:00:10;94813.16;;;-0.56;100.00
36828;BME280;22766;48.042;11.192;2024-03-08T00:02:41;94817.75;;;-0.62;100.00
36828;BME280;22766;48.042;11.192;2024-03-08T00:05:08;94825.47;;;-0.64;100.00
36828;BME280;22766;48.042;11.192;2024-03-08T00:07:36;94824.94;;;-0.69;100.00
36828;BME280;22766;48.042;11.192;2024-03-08T00:10:05;94821.56;;;-0.69;100.00
36828;BME280;22766;48.042;11.192;2024-03-08T00:12:32;94821.03;;;-0.60;100.00
36828;BME280;22766;48.042;11.192;2024-03-08T00:14:59;94812.06;;;-0.66;100.00
36828;BME280;22766;48.042;11.192;2024-03-08T00:17:25;94808.28;;;-0.73;100.00
36828;BME280;22766;48.042;11.192;2024-03-08T00:19:54;94808.28;;;-0.73;100.00
36828;BME280;22766;48.042;11.192;2024-03-08T00:22:21;94809.53;;;-0.80;100.00
36828;BME280;22766;48.042;11.192;2024-03-08T00:24:48;94806.09;;;-0.79;100.00
36828;BME280;22766;48.042;11.192;2024-03-08T00:27:17;94795.59;;;-0.73;100.00
36828;BME280;22766;48.042;11.192;2024-03-08T00:29:48;94793.06;;;-0.73;100.00
36828;BME280;22766;48.042;11.192;2024-03-08T00:32:14;94794.66;;;-0.72;100.00
36828;BME280;22766;48.042;11.192;2024-03-08T00:34:41;94788.72;;;-0.71;100.00
36828;BME280;22766;48.042;11.192;2024-03-08T00:37:09;94788.88;;;-0.74;100.00
36828;BME280;22766;48.042;11.192;2024-03-08T00:39:37;94784.09;;;-0.78;100.00
36828;BME280;22766;48.042;11.192;2024-03-08T00:42:03;94781.66;;;-0.80;100.00
36828;BME280;22766;48.042;11.192;2024-03-08T00:44:30;94790.16;;;-0.81;100.00
36828;BME280;22766;48.042;11.192;2024-03-08T00:46:58;94790.16;;;-0.81;100.00
36828;BME280;22766;48.042;11.192;2024-03-08T00:49:25;94786.72;;;-0.80;100.00
36828;BME280;22766;48.042;11.192;2024-03-08T00:51:52;94787.63;;;-0.81;100.00
36828;BME280;22766;48.042;11.192;2024-03-08T00:54:19;94778.47;;;-0.83;100.00
36828;BME280;22766;48.042;11.192;2024-03-08T00:56:46;94775.88;;;-0.82;100.00
36828;BME280;22766;48.042;11.192;2024-03-08T00:59:13;94776.75;;;-0.83;100.00
36828;BME280;22766;48.042;11.192;2024-03-08T01:01:41;94775.88;;;-0.82;100.00
36828;BME280;22766;48.042;11.192;2024-03-08T01:04:07;94765.53;;;-0.79;100.00
36828;BME280;22766;48.042;11.192;2024-03-08T01:06:34;94773.13;;;-0.79;100.00
36828;BME280;22766;48.042;11.192;2024-03-08T01:09:01;94767.34;;;-0.81;100.00
36828;BME280;22766;48.042;11.192;2024-03-08T01:11:28;94763.81;;;-0.78;100.00
36828;BME280;22766;48.042;11.192;2024-03-08T01:13:55;94765.00;;;-0.84;100.00
36828;BME280;22766;48.042;11.192;2024-03-08T01:16:22;94747.91;;;-0.80;100.00
36828;BME280;22766;48.042;11.192;2024-03-08T01:18:49;94742.91;;;-0.82;100.00
36828;BME280;22766;48.042;11.192;2024-03-08T01:21:17;94737.84;;;-0.82;100.00
36828;BME280;22766;48.042;11.192;2024-03-08T01:23:44;94736.50;;;-0.87;100.00
36828;BME280;22766;48.042;11.192;2024-03-08T01:26:10;94741.56;;;-0.87;100.00
36828;BME280;22766;48.042;11.192;2024-03-08T01:28:37;94740.75;;;-0.88;100.00
36828;BME280;22766;48.042;11.192;2024-03-08T01:31:04;94730.13;;;-0.95;100.00
36828;BME280;22766;48.042;11.192;2024-03-08T01:33:33;94731.59;;;-0.90;100.00
36828;BME280;22766;48.042;11.192;2024-03-08T01:36:00;94728.06;;;-0.88;100.00
36828;BME280;22766;48.042;11.192;2024-03-08T01:38:26;94727.44;;;-0.91;100.00
36828;BME280;22766;48.042;11.192;2024-03-08T01:40:53;94731.59;;;-0.90;100.00
36828;BME280;22766;48.042;11.192;2024-03-08T01:43:27;94728.25;;;-0.91;100.00
36828;BME280;22766;48.042;11.192;2024-03-08T01:45:59;94732.22;;;-0.87;100.00
36828;BME280;22766;48.042;11.192;2024-03-08T01:48:27;94724.34;;;-0.82;100.00
36828;BME280;22766;48.042;11.192;2024-03-08T01:50:58;94726.88;;;-0.82;100.00
36828;BME280;22766;48.042;11.192;2024-03-08T01:53:28;94719.91;;;-0.79;100.00
36828;BME280;22766;48.042;11.192;2024-03-08T01:55:59;94722.97;;;-0.74;100.00
36828;BME280;22766;48.042;11.192;2024-03-08T01:58:27;94714.91;;;-0.66;100.00
36828;BME280;22766;48.042;11.192;2024-03-08T02:00:57;94716.03;;;-0.70;100.00
36828;BME280;22766;48.042;11.192;2024-03-08T02:03:24;94705.97;;;-0.72;100.00
36828;BME280;22766;48.042;11.192;2024-03-08T02:05:51;94702.91;;;-0.77;100.00
36828;BME280;22766;48.042;11.192;2024-03-08T02:08:18;94699.53;;;-0.77;100.00
36828;BME280;22766;48.042;11.192;2024-03-08T02:10:49;94696.91;;;-0.76;100.00
36828;BME280;22766;48.042;11.192;2024-03-08T02:13:17;94696.13;;;-0.76;100.00
36828;BME280;22766;48.042;11.192;2024-03-08T02:18:18;94688.34;;;-0.87;100.00
36828;BME280;22766;48.042;11.192;2024-03-08T02:20:50;94685.88;;;-0.89;100.00
36828;BME280;22766;48.042;11.192;2024-03-08T02:23:19;94686.09;;;-0.92;100.00
36828;BME280;22766;48.042;11.192;2024-03-08T02:25:47;94686.97;;;-0.93;100.00
36828;BME280;22766;48.042;11.192;2024-03-08T02:28:14;94679.56;;;-0.96;100.00
36828;BME280;22766;48.042;11.192;2024-03-08T02:30:41;94683.91;;;-0.98;100.00
36828;BME280;22766;48.042;11.192;2024-03-08T02:33:08;94682.38;;;-1.01;100.00
36828;BME280;22766;48.042;11.192;2024-03-08T02:35:38;94680.03;;;-1.04;100.00
36828;BME280;22766;48.042;11.192;2024-03-08T02:38:04;94674.97;;;-1.04;100.00
36828;BME280;22766;48.042;11.192;2024-03-08T02:40:31;94678.31;;;-1.17;100.00
36828;BME280;22766;48.042;11.192;2024-03-08T02:42:58;94678.41;;;-1.19;100.00
36828;BME280;22766;48.042;11.192;2024-03-08T02:45:25;94676.94;;;-1.23;100.00
36828;BME280;22766;48.042;11.192;2024-03-08T02:47:52;94675.34;;;-1.24;100.00
36828;BME280;22766;48.042;11.192;2024-03-08T02:50:19;94669.44;;;-1.24;100.00
36828;BME280;22766;48.042;11.192;2024-03-08T02:52:46;94672.88;;;-1.25;100.00
36828;BME280;22766;48.042;11.192;2024-03-08T02:55:13;94667.63;;;-1.22;100.00
36828;BME280;22766;48.042;11.192;2024-03-08T02:57:43;94668.28;;;-1.19;100.00
36828;BME280;22766;48.042;11.192;2024-03-08T03:00:10;94668.28;;;-1.19;100.00
36828;BME280;22766;48.042;11.192;2024-03-08T03:02:37;94670.81;;;-1.19;100.00
36828;BME280;22766;48.042;11.192;2024-03-08T03:05:05;94668.28;;;-1.19;100.00
36828;BME280;22766;48.042;11.192;2024-03-08T03:07:33;94662.94;;;-1.14;100.00
36828;BME280;22766;48.042;11.192;2024-03-08T03:10:00;94661.13;;;-1.12;100.00
36828;BME280;22766;48.042;11.192;2024-03-08T03:12:31;94662.56;;;-1.08;100.00
36828;BME280;22766;48.042;11.192;2024-03-08T03:14:58;94657.41;;;-1.07;100.00
36828;BME280;22766;48.042;11.192;2024-03-08T03:17:25;94663.75;;;-1.00;100.00
36828;BME280;22766;48.042;11.192;2024-03-08T03:19:52;94661.72;;;-0.95;100.00
36828;BME280;22766;48.042;11.192;2024-03-08T03:22:19;94657.50;;;-0.94;100.00
36828;BME280;22766;48.042;11.192;2024-03-08T03:24:46;94662.28;;;-0.89;100.00
36828;BME280;22766;48.042;11.192;2024-03-08T03:27:13;94652.47;;;-0.81;100.00
36828;BME280;22766;48.042;11.192;2024-03-08T03:29:43;94648.06;;;-0.78;100.00
36828;BME280;22766;48.042;11.192;2024-03-08T03:32:13;94652.84;;;-0.73;100.00
36828;BME280;22766;48.042;11.192;2024-03-08T03:34:41;94650.19;;;-0.72;100.00
36828;BME280;22766;48.042;11.192;2024-03-08T03:37:08;94650.81;;;-0.68;100.00
36828;BME280;22766;48.042;11.192;2024-03-08T03:39:39;94649.25;;;-0.57;100.00
36828;BME280;22766;48.042;11.192;2024-03-08T03:42:16;94644.03;;;-0.54;100.00
36828;BME280;22766;48.042;11.192;2024-03-08T03:44:47;94639.13;;;-0.57;100.00
36828;BME280;22766;48.042;11.192;2024-03-08T03:47:15;94636.94;;;-0.49;100.00
36828;BME280;22766;48.042;11.192;2024-03-08T03:49:42;94646.69;;;-0.43;100.00
36828;BME280;22766;48.042;11.192;2024-03-08T03:52:09;94646.31;;;-0.37;100.00
36828;BME280;22766;48.042;11.192;2024-03-08T03:54:37;94644.28;;;-0.32;100.00
36828;BME280;22766;48.042;11.192;2024-03-08T03:57:03;94645.28;;;-0.34;100.00
36828;BME280;22766;48.042;11.192;2024-03-08T03:59:30;94643.97;;;-0.40;100.00
36828;BME280;22766;48.042;11.192;2024-03-08T04:01:57;94644.59;;;-0.36;100.00
36828;BME280;22766;48.042;11.192;2024-03-08T04:04:24;94638.25;;;-0.43;100.00
36828;BME280;22766;48.042;11.192;2024-03-08T04:06:51;94640.22;;;-0.34;100.00
36828;BME280;22766;48.042;11.192;2024-03-08T04:09:18;94640.94;;;-0.32;100.00
36828;BME280;22766;48.042;11.192;2024-03-08T04:11:49;94636.34;;;-0.40;100.00
36828;BME280;22766;48.042;11.192;2024-03-08T04:14:16;94644.16;;;-0.43;100.00
36828;BME280;22766;48.042;11.192;2024-03-08T04:16:44;94641.16;;;-0.35;100.00
36828;BME280;22766;48.042;11.192;2024-03-08T04:19:10;94643.34;;;-0.43;100.00
36828;BME280;22766;48.042;11.192;2024-03-08T04:21:37;94641.97;;;-0.35;100.00
36828;BME280;22766;48.042;11.192;2024-03-08T04:24:04;94645.94;;;-0.31;100.00
36828;BME280;22766;48.042;11.192;2024-03-08T04:26:33;94642.59;;;-0.31;100.00
36828;BME280;22766;48.042;11.192;2024-03-08T04:29:00;94638.88;;;-0.40;100.00
36828;BME280;22766;48.042;11.192;2024-03-08T04:31:27;94627.22;;;-0.42;100.00
36828;BME280;22766;48.042;11.192;2024-03-08T04:33:54;94631.81;;;-0.35;100.00
36828;BME280;22766;48.042;11.192;2024-03-08T04:36:21;94631.28;;;-0.40;100.00
36828;BME280;22766;48.042;11.192;2024-03-08T04:38:48;94629.19;;;-0.33;100.00
36828;BME280;22766;48.042;11.192;2024-03-08T04:41:15;94624.31;;;-0.36;100.00
36828;BME280;22766;48.042;11.192;2024-03-08T04:43:42;94618.75;;;-0.29;100.00
36828;BME280;22766;48.042;11.192;2024-03-08T04:46:09;94619.25;;;-0.36;100.00
36828;BME280;22766;48.042;11.192;2024-03-08T04:48:36;94610.22;;;-0.28;100.00
36828;BME280;22766;48.042;11.192;2024-03-08T04:51:03;94610.34;;;-0.29;100.00
36828;BME280;22766;48.042;11.192;2024-03-08T04:53:31;94615.31;;;-0.28;100.00
36828;BME280;22766;48.042;11.192;2024-03-08T04:55:59;94618.16;;;-0.20;100.00
36828;BME280;22766;48.042;11.192;2024-03-08T04:58:26;94608.63;;;-0.16;100.00
36828;BME280;22766;48.042;11.192;2024-03-08T05:00:54;94616.84;;;-0.13;100.00
36828;BME280;22766;48.042;11.192;2024-03-08T05:03:21;94619.41;;;-0.13;100.00
36828;BME280;22766;48.042;11.192;2024-03-08T05:05:48;94615.09;;;-0.25;100.00
36828;BME280;22766;48.042;11.192;2024-03-08T05:08:15;94613.38;;;-0.24;100.00
36828;BME280;22766;48.042;11.192;2024-03-08T05:10:45;94613.81;;;-0.18;100.00
36828;BME280;22766;48.042;11.192;2024-03-08T05:13:13;94615.88;;;-0.10;100.00
36828;BME280;22766;48.042;11.192;2024-03-08T05:15:39;94616.75;;;-0.11;100.00
36828;BME280;22766;48.042;11.192;2024-03-08T05:18:06;94612.13;;;-0.05;100.00
36828;BME280;22766;48.042;11.192;2024-03-08T05:20:33;94608.63;;;-0.16;100.00
36828;BME280;22766;48.042;11.192;2024-03-08T05:23:00;94610.56;;;-0.20;100.00
36828;BME280;22766;48.042;11.192;2024-03-08T05:25:27;94608.03;;;-0.20;100.00
36828;BME280;22766;48.042;11.192;2024-03-08T05:27:54;94607.72;;;-0.15;100.00
36828;BME280;22766;48.042;11.192;2024-03-08T05:30:20;94609.50;;;-0.30;100.00
36828;BME280;22766;48.042;11.192;2024-03-08T05:32:48;94603.44;;;-0.27;100.00
36828;BME280;22766;48.042;11.192;2024-03-08T05:35:15;94605.75;;;-0.24;100.00
36828;BME280;22766;48.042;11.192;2024-03-08T05:37:45;94609.19;;;-0.38;100.00
36828;BME280;22766;48.042;11.192;2024-03-08T05:40:12;94601.06;;;-0.43;100.00
36828;BME280;22766;48.042;11.192;2024-03-08T05:42:44;94603.22;;;-0.37;100.00
36828;BME280;22766;48.042;11.192;2024-03-08T05:45:10;94596.81;;;-0.30;100.00
36828;BME280;22766;48.042;11.192;2024-03-08T05:47:39;94599.09;;;-0.25;100.00
36828;BME280;22766;48.042;11.192;2024-03-08T05:50:06;94599.59;;;-0.20;100.00
36828;BME280;22766;48.042;11.192;2024-03-08T05:52:36;94598.97;;;-0.24;100.00
36828;BME280;22766;48.042;11.192;2024-03-08T05:55:05;94595.22;;;-0.31;100.00
36828;BME280;22766;48.042;11.192;2024-03-08T05:57:34;94600.47;;;-0.34;100.00
36828;BME280;22766;48.042;11.192;2024-03-08T06:00:01;94607.25;;;-0.34;100.00
36828;BME280;22766;48.042;11.192;2024-03-08T06:02:38;94590.88;;;-0.29;100.00
36828;BME280;22766;48.042;11.192;2024-03-08T06:05:11;94590.22;;;-0.32;100.00
36828;BME280;22766;48.042;11.192;2024-03-08T06:07:38;94599.94;;;-0.39;100.00
36828;BME280;22766;48.042;11.192;2024-03-08T06:10:09;94598.53;;;-0.30;100.00
36828;BME280;22766;48.042;11.192;2024-03-08T06:12:39;94593.16;;;-0.38;100.00
36828;BME280;22766;48.042;11.192;2024-03-08T06:15:09;94586.88;;;-0.33;100.00
36828;BME280;22766;48.042;11.192;2024-03-08T06:17:36;94590.28;;;-0.20;100.00
36828;BME280;22766;48.042;11.192;2024-03-08T06:20:03;94592.38;;;-0.26;100.00
36828;BME280;22766;48.042;11.192;2024-03-08T06:22:37;94595.28;;;-0.32;100.00
36828;BME280;22766;48.042;11.192;2024-03-08T06:25:13;94593.69;;;-0.33;100.00
36828;BME280;22766;48.042;11.192;2024-03-08T06:27:43;94599.81;;;-0.23;100.00
36828;BME280;22766;48.042;11.192;2024-03-08T06:30:10;94595.22;;;-0.31;100.00
36828;BME280;22766;48.042;11.192;2024-03-08T06:32:37;94603.06;;;-0.21;100.00
36828;BME280;22766;48.042;11.192;2024-03-08T06:35:05;94598.38;;;-0.27;100.00
36828;BME280;22766;48.042;11.192;2024-03-08T06:37:33;94598.66;;;-0.32;100.00
36828;BME280;22766;48.042;11.192;2024-03-08T06:40:00;94595.34;;;-0.20;100.00
36828;BME280;22766;48.042;11.192;2024-03-08T06:42:28;94603.66;;;-0.18;100.00
36828;BME280;22766;48.042;11.192;2024-03-08T06:44:55;94597.28;;;-0.11;100.00
36828;BME280;22766;48.042;11.192;2024-03-08T06:47:26;94597.78;;;-0.06;100.00
36828;BME280;22766;48.042;11.192;2024-03-08T06:49:53;94601.53;;;-0.11;100.00
36828;BME280;22766;48.042;11.192;2024-03-08T06:52:20;94607.53;;;-0.12;100.00
36828;BME280;22766;48.042;11.192;2024-03-08T06:54:48;94606.13;;;-0.04;100.00
36828;BME280;22766;48.042;11.192;2024-03-08T06:57:15;94603.19;;;0.03;100.00
36828;BME280;22766;48.042;11.192;2024-03-08T06:59:43;94609.09;;;0.03;100.00
36828;BME280;22766;48.042;11.192;2024-03-08T07:02:10;94605.31;;;-0.04;100.00
36828;BME280;22766;48.042;11.192;2024-03-08T07:04:36;94606.16;;;0.09;100.00
36828;BME280;22766;48.042;11.192;2024-03-08T07:07:05;94600.88;;;0.12;100.00
36828;BME280;22766;48.042;11.192;2024-03-08T07:09:31;94598.03;;;0.17;100.00
36828;BME280;22766;48.042;11.192;2024-03-08T07:11:59;94598.44;;;0.11;100.00
36828;BME280;22766;48.042;11.192;2024-03-08T07:14:25;94589.00;;;0.13;100.00
36828;BME280;22766;48.042;11.192;2024-03-08T07:16:52;94587.88;;;0.17;100.00
36828;BME280;22766;48.042;11.192;2024-03-08T07:19:19;94586.84;;;0.19;100.00
36828;BME280;22766;48.042;11.192;2024-03-08T07:21:46;94588.28;;;0.11;100.00
36828;BME280;22766;48.042;11.192;2024-03-08T07:24:14;94587.69;;;0.20;100.00
36828;BME280;22766;48.042;11.192;2024-03-08T07:26:40;94587.16;;;0.27;100.00
36828;BME280;22766;48.042;11.192;2024-03-08T07:29:07;94582.19;;;0.26;100.00
36828;BME280;22766;48.042;11.192;2024-03-08T07:31:34;94581.88;;;0.18;100.00
36828;BME280;22766;48.042;11.192;2024-03-08T07:34:11;94578.56;;;0.30;100.00
36828;BME280;22766;48.042;11.192;2024-03-08T07:36:39;94576.94;;;0.41;100.00
36828;BME280;22766;48.042;11.192;2024-03-08T07:39:06;94579.88;;;0.35;100.00
36828;BME280;22766;48.042;11.192;2024-03-08T07:41:38;94579.38;;;0.30;100.00
36828;BME280;22766;48.042;11.192;2024-03-08T07:44:07;94585.38;;;0.42;100.00
36828;BME280;22766;48.042;11.192;2024-03-08T07:46:34;94582.91;;;0.40;100.00
36828;BME280;22766;48.042;11.192;2024-03-08T07:49:01;94574.69;;;0.62;100.00
36828;BME280;22766;48.042;11.192;2024-03-08T07:51:29;94573.22;;;0.83;100.00
36828;BME280;22766;48.042;11.192;2024-03-08T07:53:57;94570.34;;;0.87;100.00
36828;BME280;22766;48.042;11.192;2024-03-08T07:56:28;94576.78;;;0.93;100.00
36828;BME280;22766;48.042;11.192;2024-03-08T07:58:55;94572.13;;;1.11;100.00
36828;BME280;22766;48.042;11.192;2024-03-08T08:01:22;94563.41;;;1.02;100.00
36828;BME280;22766;48.042;11.192;2024-03-08T08:03:49;94573.28;;;0.94;100.00
36828;BME280;22766;48.042;11.192;2024-03-08T08:06:16;94563.94;;;0.94;100.00
36828;BME280;22766;48.042;11.192;2024-03-08T08:08:43;94566.59;;;0.93;100.00
36828;BME280;22766;48.042;11.192;2024-03-08T08:11:10;94571.94;;;1.01;100.00
36828;BME280;22766;48.042;11.192;2024-03-08T08:13:43;94569.16;;;1.17;100.00
36828;BME280;22766;48.042;11.192;2024-03-08T08:16:09;94573.00;;;1.22;100.00
36828;BME280;22766;48.042;11.192;2024-03-08T08:18:39;94572.19;;;1.22;100.00
36828;BME280;22766;48.042;11.192;2024-03-08T08:21:07;94568.53;;;1.26;100.00
36828;BME280;22766;48.042;11.192;2024-03-08T08:23:34;94571.00;;;1.15;100.00
36828;BME280;22766;48.042;11.192;2024-03-08T08:26:01;94563.81;;;1.32;100.00
36828;BME280;22766;48.042;11.192;2024-03-08T08:28:31;94559.03;;;1.40;100.00
36828;BME280;22766;48.042;11.192;2024-03-08T08:30:58;94553.78;;;1.31;100.00
36828;BME280;22766;48.042;11.192;2024-03-08T08:33:26;94551.97;;;1.44;100.00
36828;BME280;22766;48.042;11.192;2024-03-08T08:35:53;94548.63;;;1.43;100.00
36828;BME280;22766;48.042;11.192;2024-03-08T08:38:20;94546.03;;;1.32;100.00
36828;BME280;22766;48.042;11.192;2024-03-08T08:40:47;94534.81;;;1.58;100.00
36828;BME280;22766;48.042;11.192;2024-03-08T08:43:14;94535.09;;;1.77;100.00
36828;BME280;22766;48.042;11.192;2024-03-08T08:45:41;94532.88;;;2.08;100.00
36828;BME280;22766;48.042;11.192;2024-03-08T08:48:09;94532.19;;;2.17;100.00
36828;BME280;22766;48.042;11.192;2024-03-08T08:50:37;94534.19;;;2.35;100.00
36828;BME280;22766;48.042;11.192;2024-03-08T08:53:04;94532.94;;;2.52;100.00
36828;BME280;22766;48.042;11.192;2024-03-08T08:55:33;94530.81;;;2.57;100.00
36828;BME280;22766;48.042;11.192;2024-03-08T08:58:02;94524.47;;;2.51;100.00
36828;BME280;22766;48.042;11.192;2024-03-08T09:00:30;94528.97;;;2.59;100.00
36828;BME280;22766;48.042;11.192;2024-03-08T09:02:58;94528.28;;;2.57;100.00
36828;BME280;22766;48.042;11.192;2024-03-08T09:05:25;94525.75;;;2.46;100.00
36828;BME280;22766;48.042;11.192;2024-03-08T09:07:53;94526.69;;;2.45;100.00
36828;BME280;22766;48.042;11.192;2024-03-08T09:10:20;94524.91;;;2.45;100.00
36828;BME280;22766;48.042;11.192;2024-03-08T09:12:47;94520.88;;;2.43;100.00
36828;BME280;22766;48.042;11.192;2024-03-08T09:15:14;94519.25;;;2.31;100.00
36828;BME280;22766;48.042;11.192;2024-03-08T09:17:41;94517.97;;;2.47;100.00
36828;BME280;22766;48.042;11.192;2024-03-08T09:20:09;94511.94;;;2.81;100.00
36828;BME280;22766;48.042;11.192;2024-03-08T09:22:37;94512.41;;;2.87;100.00
36828;BME280;22766;48.042;11.192;2024-03-08T09:25:04;94513.19;;;3.09;100.00
36828;BME280;22766;48.042;11.192;2024-03-08T09:27:33;94508.94;;;3.30;100.00
36828;BME280;22766;48.042;11.192;2024-03-08T09:30:05;94513.72;;;3.55;100.00
36828;BME280;22766;48.042;11.192;2024-03-08T09:32:34;94504.81;;;3.70;100.00
36828;BME280;22766;48.042;11.192;2024-03-08T09:35:01;94504.69;;;4.34;100.00
36828;BME280;22766;48.042;11.192;2024-03-08T09:37:28;94510.59;;;4.55;100.00
36828;BME280;22766;48.042;11.192;2024-03-08T09:39:55;94498.75;;;4.84;100.00
36828;BME280;22766;48.042;11.192;2024-03-08T09:42:22;94501.66;;;5.29;100.00
36828;BME280;22766;48.042;11.192;2024-03-08T09:44:48;94503.03;;;5.42;100.00
36828;BME280;22766;48.042;11.192;2024-03-08T09:47:15;94500.84;;;5.28;100.00
36828;BME280;22766;48.042;11.192;2024-03-08T09:49:44;94503.13;;;5.12;100.00
36828;BME280;22766;48.042;11.192;2024-03-08T09:52:11;94498.84;;;5.60;100.00
36828;BME280;22766;48.042;11.192;2024-03-08T09:54:39;94490.75;;;6.13;100.00
36828;BME280;22766;48.042;11.192;2024-03-08T09:57:06;94490.25;;;6.00;100.00
36828;BME280;22766;48.042;11.192;2024-03-08T09:59:35;94485.50;;;6.05;100.00
36828;BME280;22766;48.042;11.192;2024-03-08T10:02:02;94486.28;;;6.34;100.00
36828;BME280;22766;48.042;11.192;2024-03-08T10:04:29;94484.78;;;6.31;100.00
36828;BME280;22766;48.042;11.192;2024-03-08T10:06:58;94478.25;;;6.00;100.00
36828;BME280;22766;48.042;11.192;2024-03-08T10:09:25;94470.22;;;6.69;100.00
36828;BME280;22766;48.042;11.192;2024-03-08T10:11:57;94474.00;;;6.92;99.93
36828;BME280;22766;48.042;11.192;2024-03-08T10:14:27;94467.06;;;7.02;99.11
36828;BME280;22766;48.042;11.192;2024-03-08T10:16:54;94463.38;;;7.49;96.00
36828;BME280;22766;48.042;11.192;2024-03-08T10:19:21;94458.59;;;8.32;94.52
36828;BME280;22766;48.042;11.192;2024-03-08T10:21:52;94462.16;;;7.53;88.85
36828;BME280;22766;48.042;11.192;2024-03-08T10:24:20;94466.13;;;8.08;89.89
36828;BME280;22766;48.042;11.192;2024-03-08T10:26:46;94467.75;;;8.61;88.41
36828;BME280;22766;48.042;11.192;2024-03-08T10:29:14;94456.19;;;8.57;81.95
36828;BME280;22766;48.042;11.192;2024-03-08T10:31:44;94452.13;;;9.54;83.06
36828;BME280;22766;48.042;11.192;2024-03-08T10:34:11;94455.06;;;9.83;76.59
36828;BME280;22766;48.042;11.192;2024-03-08T10:36:39;94456.22;;;10.37;73.52
36828;BME280;22766;48.042;11.192;2024-03-08T10:39:22;94449.53;;;10.66;73.51
36828;BME280;22766;48.042;11.192;2024-03-08T10:41:56;94452.00;;;10.52;63.93
36828;BME280;22766;48.042;11.192;2024-03-08T10:47:17;94451.34;;;10.96;71.23
36828;BME280;22766;48.042;11.192;2024-03-08T10:52:18;94442.66;;;10.97;59.03
36828;BME280;22766;48.042;11.192;2024-03-08T10:54:47;94435.84;;;11.35;59.81
36828;BME280;22766;48.042;11.192;2024-03-08T10:57:17;94434.16;;;12.47;59.87
36828;BME280;22766;48.042;11.192;2024-03-08T10:59:46;94435.06;;;12.54;55.62
36828;BME280;22766;48.042;11.192;2024-03-08T11:02:17;94431.06;;;13.10;51.79
36828;BME280;22766;48.042;11.192;2024-03-08T11:04:50;94426.59;;;13.04;51.20
36828;BME280;22766;48.042;11.192;2024-03-08T11:07:19;94424.44;;;12.93;52.27
36828;BME280;22766;48.042;11.192;2024-03-08T11:09:48;94425.63;;;12.76;51.50
36828;BME280;22766;48.042;11.192;2024-03-08T11:12:25;94416.47;;;13.09;50.34
36828;BME280;22766;48.042;11.192;2024-03-08T11:14:59;94412.72;;;13.47;51.03
36828;BME280;22766;48.042;11.192;2024-03-08T11:19:58;94405.41;;;13.93;47.07
36828;BME280;22766;48.042;11.192;2024-03-08T11:22:33;94410.91;;;14.94;47.58
36828;BME280;22766;48.042;11.192;2024-03-08T11:25:04;94406.41;;;15.63;45.77
36828;BME280;22766;48.042;11.192;2024-03-08T11:27:37;94402.47;;;16.26;44.39
36828;BME280;22766;48.042;11.192;2024-03-08T11:30:06;94400.22;;;15.17;43.20
36828;BME280;22766;48.042;11.192;2024-03-08T11:32:45;94391.22;;;15.19;45.20
36828;BME280;22766;48.042;11.192;2024-03-08T11:35:19;94382.16;;;15.56;43.96
36828;BME280;22766;48.042;11.192;2024-03-08T11:37:46;94380.59;;;15.94;41.88
36828;BME280;22766;48.042;11.192;2024-03-08T11:40:15;94373.41;;;15.76;42.78
36828;BME280;22766;48.042;11.192;2024-03-08T11:42:46;94378.41;;;16.11;43.22
36828;BME280;22766;48.042;11.192;2024-03-08T11:45:18;94369.75;;;15.71;40.42
36828;BME280;22766;48.042;11.192;2024-03-08T11:47:48;94365.56;;;15.57;41.54
36828;BME280;22766;48.042;11.192;2024-03-08T11:50:17;94370.00;;;16.15;41.69
36828;BME280;22766;48.042;11.192;2024-03-08T11:52:46;94364.75;;;16.28;40.72
36828;BME280;22766;48.042;11.192;2024-03-08T11:55:13;94364.59;;;15.90;41.99
36828;BME280;22766;48.042;11.192;2024-03-08T11:57:40;94359.56;;;16.35;42.40
36828;BME280;22766;48.042;11.192;2024-03-08T12:00:18;94352.31;;;17.64;40.61
36828;BME280;22766;48.042;11.192;2024-03-08T12:03:03;94352.75;;;17.86;39.40
36828;BME280;22766;48.042;11.192;2024-03-08T12:05:30;94345.38;;;18.08;38.53
36828;BME280;22766;48.042;11.192;2024-03-08T12:08:01;94346.22;;;18.26;39.07
36828;BME280;22766;48.042;11.192;2024-03-08T12:10:29;94334.31;;;17.50;38.18
36828;BME280;22766;48.042;11.192;2024-03-08T12:12:58;94332.34;;;16.95;38.70
36828;BME280;22766;48.042;11.192;2024-03-08T12:15:31;94326.59;;;16.79;39.62
36828;BME280;22766;48.042;11.192;2024-03-08T12:18:00;94323.38;;;17.66;39.72
36828;BME280;22766;48.042;11.192;2024-03-08T12:20:28;94318.81;;;17.86;38.01
36828;BME280;22766;48.042;11.192;2024-03-08T12:22:59;94316.38;;;19.24;36.71
36828;BME280;22766;48.042;11.192;2024-03-08T12:25:33;94316.59;;;18.32;36.85
36828;BME280;22766;48.042;11.192;2024-03-08T12:28:08;94310.13;;;18.59;36.33
36828;BME280;22766;48.042;11.192;2024-03-08T12:33:15;94307.44;;;19.32;35.83
36828;BME280;22766;48.042;11.192;2024-03-08T12:35:50;94294.38;;;19.73;33.80
36828;BME280;22766;48.042;11.192;2024-03-08T12:38:17;94299.19;;;19.35;35.01
36828;BME280;22766;48.042;11.192;2024-03-08T12:40:43;94301.06;;;18.80;35.60
36828;BME280;22766;48.042;11.192;2024-03-08T12:43:12;94294.03;;;18.38;36.13
36828;BME280;22766;48.042;11.192;2024-03-08T12:45:42;94285.47;;;16.81;38.17
36828;BME280;22766;48.042;11.192;2024-03-08T12:48:15;94288.41;;;17.36;36.65
36828;BME280;22766;48.042;11.192;2024-03-08T12:50:42;94276.41;;;16.91;37.09
36828;BME280;22766;48.042;11.192;2024-03-08T12:53:14;94272.44;;;17.57;36.20
36828;BME280;22766;48.042;11.192;2024-03-08T12:55:41;94272.94;;;17.34;36.15
36828;BME280;22766;48.042;11.192;2024-03-08T12:58:08;94260.97;;;17.27;36.38
36828;BME280;22766;48.042;11.192;2024-03-08T13:00:35;94259.50;;;18.54;35.06
36828;BME280;22766;48.042;11.192;2024-03-08T13:03:09;94257.34;;;18.99;35.78